createdAt,value
2022-08-04T00:00:01.610Z,65.80
2022-08-04T00:02:41.880Z,65.80
2022-08-04T00:05:17.665Z,65.90
2022-08-04T00:07:54.688Z,66.00
2022-08-04T00:10:23.731Z,66.00
2022-08-04T00:12:54.859Z,66.10
2022-08-04T00:15:23.460Z,66.20
2022-08-04T00:24:10.310Z,66.30
2022-08-04T00:26:40.213Z,66.60
2022-08-04T00:29:07.089Z,66.70
2022-08-04T00:31:56.475Z,66.90
2022-08-04T00:34:21.637Z,67.20
2022-08-04T00:36:48.687Z,67.10
2022-08-04T00:39:16.942Z,67.10
2022-08-04T00:42:03.674Z,67.20
2022-08-04T00:45:00.480Z,67.40
2022-08-04T00:47:54.014Z,67.50
2022-08-04T00:50:37.462Z,67.30
2022-08-04T00:53:13.761Z,67.50
2022-08-04T00:55:55.431Z,67.50
2022-08-04T00:58:49.627Z,67.50
2022-08-04T01:01:25.172Z,67.70
2022-08-04T01:04:19.715Z,67.90
2022-08-04T01:07:01.252Z,68.10
2022-08-04T01:09:51.297Z,68.30
2022-08-04T01:12:38.922Z,68.40
2022-08-04T01:15:15.407Z,68.50
2022-08-04T01:18:06.835Z,68.60
2022-08-04T01:20:45.688Z,68.90
2022-08-04T01:23:51.687Z,69.00
2022-08-04T01:26:58.686Z,69.10
2022-08-04T01:29:31.044Z,69.20
2022-08-04T01:32:19.661Z,69.20
2022-08-04T01:35:21.670Z,69.20
2022-08-04T01:38:21.149Z,69.30
2022-08-04T01:40:48.697Z,69.40
2022-08-04T01:43:16.357Z,69.30
2022-08-04T01:45:49.609Z,69.40
2022-08-04T01:48:22.957Z,69.50
2022-08-04T01:50:53.729Z,69.80
2022-08-04T01:53:21.963Z,70.00
2022-08-04T01:55:55.542Z,70.00
2022-08-04T01:58:24.653Z,70.00
2022-08-04T02:01:05.093Z,70.00
2022-08-04T02:04:19.841Z,70.10
2022-08-04T02:06:35.215Z,70.00
2022-08-04T02:09:24.817Z,70.10
2022-08-04T02:12:24.835Z,70.10
2022-08-04T02:14:57.453Z,70.00
2022-08-04T02:17:31.427Z,70.00
2022-08-04T02:20:23.156Z,70.00
2022-08-04T02:23:00.045Z,70.00
2022-08-04T02:25:29.893Z,70.00
2022-08-04T02:28:05.455Z,70.00
2022-08-04T02:30:46.794Z,70.20
2022-08-04T02:33:18.217Z,70.40
2022-08-04T02:35:47.178Z,70.40
2022-08-04T02:38:40.979Z,70.30
2022-08-04T02:41:11.144Z,71.10
2022-08-04T02:43:51.469Z,70.20
2022-08-04T02:46:21.011Z,70.20
2022-08-04T02:48:50.108Z,70.00
2022-08-04T02:51:28.799Z,70.00
2022-08-04T02:53:58.207Z,70.10
2022-08-04T02:56:28.206Z,70.20
2022-08-04T02:59:04.402Z,70.30
2022-08-04T03:01:32.164Z,70.60
2022-08-04T03:04:25.018Z,70.70
2022-08-04T03:07:14.422Z,70.80
2022-08-04T03:09:51.071Z,70.90
2022-08-04T03:12:41.406Z,70.90
2022-08-04T03:15:14.113Z,71.20
2022-08-04T03:18:06.889Z,71.30
2022-08-04T03:20:39.568Z,71.40
2022-08-04T03:23:43.880Z,71.80
2022-08-04T03:26:25.457Z,72.10
2022-08-04T03:29:36.360Z,72.20
2022-08-04T03:32:06.812Z,72.50
2022-08-04T03:34:57.773Z,72.40
2022-08-04T03:37:36.457Z,72.80
2022-08-04T03:40:23.382Z,73.00
2022-08-04T03:43:57.692Z,73.20
2022-08-04T03:46:36.085Z,73.50
2022-08-04T03:49:18.009Z,73.80
2022-08-04T03:52:20.327Z,73.70
2022-08-04T03:54:58.693Z,74.00
2022-08-04T03:57:25.362Z,74.10
2022-08-04T04:00:25.031Z,74.10
2022-08-04T04:03:28.408Z,74.30
2022-08-04T04:06:03.179Z,74.20
2022-08-04T04:08:48.078Z,74.20
2022-08-04T04:11:34.741Z,74.40
2022-08-04T04:14:42.266Z,75.20
2022-08-04T04:17:41.661Z,74.60
2022-08-04T04:20:37.341Z,74.70
2022-08-04T04:23:15.334Z,74.70
2022-08-04T04:26:12.902Z,74.80
2022-08-04T04:29:17.292Z,74.90
2022-08-04T04:32:21.332Z,75.10
2022-08-04T04:34:47.965Z,75.10
2022-08-04T04:37:47.657Z,75.10
2022-08-04T04:40:18.197Z,75.40
2022-08-04T04:43:12.187Z,75.40
2022-08-04T04:45:47.722Z,75.60
2022-08-04T04:48:31.070Z,75.70
2022-08-04T04:51:19.226Z,75.90
2022-08-04T04:53:52.057Z,76.00
2022-08-04T04:56:35.800Z,76.20
2022-08-04T04:59:06.517Z,76.30
2022-08-04T05:01:45.145Z,76.40
2022-08-04T05:04:39.914Z,76.70
2022-08-04T05:07:29.514Z,76.80
2022-08-04T05:10:58.850Z,76.80
2022-08-04T05:14:37.708Z,77.00
2022-08-04T05:16:40.492Z,76.90
2022-08-04T05:19:09.982Z,76.80
2022-08-04T05:21:45.397Z,76.90
2022-08-04T05:24:17.649Z,76.90
2022-08-04T05:26:48.694Z,77.70
2022-08-04T05:29:35.128Z,77.00
2022-08-04T05:32:07.263Z,77.20
2022-08-04T05:34:42.339Z,77.00
2022-08-04T05:37:14.867Z,77.00
2022-08-04T05:39:58.435Z,76.70
2022-08-04T05:42:27.228Z,76.60
2022-08-04T05:44:55.724Z,76.40
2022-08-04T05:47:23.093Z,76.20
2022-08-04T05:50:01.324Z,76.20
2022-08-04T05:52:31.103Z,76.20
2022-08-04T05:55:00.401Z,76.00
2022-08-04T05:57:27.637Z,75.90
2022-08-04T05:59:57.435Z,75.90
2022-08-04T06:02:25.354Z,75.60
2022-08-04T06:04:53.387Z,75.50
2022-08-04T06:07:20.686Z,75.40
2022-08-04T06:09:47.646Z,75.30
2022-08-04T06:12:25.760Z,75.20
2022-08-04T06:14:57.826Z,75.20
2022-08-04T06:19:57.766Z,75.00
2022-08-04T06:20:22.933Z,74.80
2022-08-04T06:22:54.594Z,74.50
2022-08-04T06:25:24.885Z,74.20
2022-08-04T06:27:52.467Z,74.10
2022-08-04T06:30:20.663Z,74.60
2022-08-04T06:32:49.890Z,73.70
2022-08-04T06:35:18.142Z,73.40
2022-08-04T06:37:47.655Z,73.10
2022-08-04T06:40:30.535Z,72.80
2022-08-04T06:42:59.552Z,72.60
2022-08-04T06:45:27.185Z,72.30
2022-08-04T06:47:56.161Z,71.80
2022-08-04T06:51:32.427Z,71.20
2022-08-04T06:53:10.503Z,70.70
2022-08-04T06:55:38.323Z,70.20
2022-08-04T06:58:06.267Z,69.80
2022-08-04T07:00:35.209Z,69.50
2022-08-04T07:03:03.401Z,69.20
2022-08-04T07:05:30.870Z,68.90
2022-08-04T07:07:59.056Z,68.40
2022-08-04T07:10:29.564Z,68.00
2022-08-04T07:13:00.559Z,67.70
2022-08-04T07:15:28.219Z,67.40
2022-08-04T07:17:59.966Z,67.20
2022-08-04T07:20:34.911Z,67.00
2022-08-04T07:23:06.267Z,66.60
2022-08-04T07:25:59.451Z,66.20
2022-08-04T07:28:28.394Z,65.90
2022-08-04T07:30:56.757Z,65.70
2022-08-04T07:33:24.764Z,65.20
2022-08-04T07:36:09.548Z,65.10
2022-08-04T07:38:48.394Z,65.00
2022-08-04T07:41:39.006Z,64.90
2022-08-04T07:44:06.912Z,64.60
2022-08-04T07:46:34.120Z,64.40
2022-08-04T07:49:01.263Z,64.00
2022-08-04T07:51:30.503Z,63.80
2022-08-04T07:53:58.572Z,63.70
2022-08-04T07:56:26.779Z,63.60
2022-08-04T07:58:54.364Z,63.30
2022-08-04T08:01:22.632Z,63.10
2022-08-04T08:03:50.952Z,63.00
2022-08-04T08:06:31.635Z,62.90
2022-08-04T08:09:02.059Z,62.80
2022-08-04T08:12:35.969Z,63.50
2022-08-04T08:14:28.178Z,62.50
2022-08-04T08:16:54.996Z,62.20
2022-08-04T08:19:21.773Z,61.80
2022-08-04T08:21:58.870Z,61.60
2022-08-04T08:24:28.228Z,61.40
2022-08-04T08:26:56.026Z,61.10
2022-08-04T08:29:24.165Z,60.80
2022-08-04T08:31:57.302Z,60.30
2022-08-04T08:34:30.826Z,59.70
2022-08-04T08:37:06.733Z,59.30
2022-08-04T08:39:42.834Z,58.80
2022-08-04T08:42:40.562Z,58.70
2022-08-04T08:45:17.626Z,58.50
2022-08-04T08:48:05.904Z,58.40
2022-08-04T08:50:58.238Z,57.90
2022-08-04T08:53:30.803Z,57.30
2022-08-04T08:56:18.947Z,57.20
2022-08-04T08:59:26.406Z,56.90
2022-08-04T09:01:55.908Z,56.80
2022-08-04T09:04:59.504Z,56.80
2022-08-04T09:07:38.715Z,56.40
2022-08-04T09:10:25.602Z,56.30
2022-08-04T09:13:05.493Z,56.20
2022-08-04T09:15:54.420Z,56.10
2022-08-04T09:18:48.154Z,56.10
2022-08-04T09:21:39.531Z,56.00
2022-08-04T09:24:37.219Z,55.90
2022-08-04T09:27:13.643Z,55.70
2022-08-04T09:29:43.166Z,55.60
2022-08-04T09:32:34.933Z,55.50
2022-08-04T09:35:37.678Z,55.10
2022-08-04T09:38:36.164Z,55.10
2022-08-04T09:41:48.129Z,55.00
2022-08-04T09:44:49.270Z,54.70
2022-08-04T09:47:39.873Z,54.50
2022-08-04T09:50:10.192Z,54.40
2022-08-04T09:52:59.937Z,54.20
2022-08-04T09:55:53.807Z,54.10
2022-08-04T09:58:40.198Z,54.00
2022-08-04T10:01:11.764Z,53.80
2022-08-04T10:03:43.547Z,53.50
2022-08-04T10:06:19.296Z,53.30
2022-08-04T10:09:04.663Z,53.20
2022-08-04T10:11:54.365Z,52.90
2022-08-04T10:15:01.185Z,52.90
2022-08-04T10:17:38.955Z,52.90
2022-08-04T10:20:34.023Z,52.90
2022-08-04T10:23:17.534Z,52.70
2022-08-04T10:26:07.498Z,52.60
2022-08-04T10:28:49.520Z,52.50
2022-08-04T10:31:22.620Z,52.20
2022-08-04T10:33:54.570Z,52.00
2022-08-04T10:36:30.249Z,52.00
2022-08-04T10:39:00.026Z,51.80
2022-08-04T10:41:44.983Z,51.70
2022-08-04T10:44:23.685Z,51.50
2022-08-04T10:47:01.990Z,51.30
2022-08-04T10:49:41.748Z,50.90
2022-08-04T10:52:18.437Z,50.70
2022-08-04T10:55:06.828Z,50.20
2022-08-04T10:57:49.020Z,50.00
2022-08-04T11:00:21.615Z,49.80
2022-08-04T11:03:11.879Z,49.80
2022-08-04T11:05:50.431Z,49.60
2022-08-04T11:08:39.837Z,49.50
2022-08-04T11:12:00.526Z,49.10
2022-08-04T11:14:59.433Z,49.10
2022-08-04T11:17:36.320Z,48.70
2022-08-04T11:20:36.794Z,47.80
2022-08-04T11:23:12.070Z,47.40
2022-08-04T11:26:07.753Z,46.80
2022-08-04T11:29:12.055Z,46.50
2022-08-04T11:31:49.799Z,46.10
2022-08-04T11:34:26.964Z,46.10
2022-08-04T11:37:23.027Z,45.60
2022-08-04T11:39:57.500Z,45.50
2022-08-04T11:42:28.135Z,45.40
2022-08-04T11:45:05.747Z,45.00
2022-08-04T11:47:58.349Z,44.70
2022-08-04T11:50:53.120Z,44.30
2022-08-04T11:53:26.110Z,44.00
2022-08-04T11:56:07.611Z,43.70
2022-08-04T11:58:37.396Z,43.20
2022-08-04T12:01:21.655Z,42.50
2022-08-04T12:04:03.136Z,42.00
2022-08-04T12:07:04.598Z,41.60
2022-08-04T12:09:58.349Z,40.60
2022-08-04T12:12:47.273Z,40.60
2022-08-04T12:15:20.129Z,40.60
2022-08-04T12:18:09.140Z,40.60
2022-08-04T12:20:43.007Z,40.30
2022-08-04T12:23:25.043Z,40.00
2022-08-04T12:25:58.676Z,39.90
2022-08-04T12:28:59.552Z,39.70
2022-08-04T12:31:49.387Z,39.60
2022-08-04T12:34:20.560Z,39.60
2022-08-04T12:36:58.284Z,39.40
2022-08-04T12:39:27.506Z,38.70
2022-08-04T12:42:07.849Z,38.30
2022-08-04T12:44:39.060Z,37.80
2022-08-04T12:47:26.376Z,38.10
2022-08-04T12:50:02.285Z,38.30
2022-08-04T12:53:00.417Z,38.70
2022-08-04T12:55:23.829Z,38.80
2022-08-04T12:57:52.174Z,38.60
2022-08-04T13:00:38.179Z,38.40
2022-08-04T13:03:11.477Z,38.40
2022-08-04T13:05:41.050Z,38.60
2022-08-04T13:08:10.376Z,38.70
2022-08-04T13:10:47.217Z,38.80
2022-08-04T13:13:24.566Z,38.80
2022-08-04T13:16:01.474Z,38.80
2022-08-04T13:18:32.762Z,38.80
2022-08-04T13:21:22.902Z,38.70
2022-08-04T13:24:21.986Z,38.40
2022-08-04T13:27:09.017Z,38.40
2022-08-04T13:29:59.932Z,38.40
2022-08-04T13:32:32.002Z,38.40
2022-08-04T13:35:01.674Z,39.20
2022-08-04T13:37:35.996Z,38.40
2022-08-04T13:40:06.608Z,38.30
2022-08-04T13:42:35.563Z,38.30
2022-08-04T13:45:04.086Z,38.50
2022-08-04T13:47:34.905Z,38.40
2022-08-04T13:50:19.557Z,38.40
2022-08-04T13:52:47.567Z,38.50
2022-08-04T13:55:33.061Z,38.60
2022-08-04T13:58:08.868Z,38.50
2022-08-04T14:01:02.054Z,38.60
2022-08-04T14:03:54.300Z,38.60
2022-08-04T14:06:34.824Z,38.50
2022-08-04T14:09:17.777Z,38.50
2022-08-04T14:12:06.443Z,38.40
2022-08-04T14:14:48.806Z,38.20
2022-08-04T14:17:20.197Z,38.10
2022-08-04T14:19:50.474Z,38.00
2022-08-04T14:22:26.104Z,38.10
2022-08-04T14:25:15.665Z,38.10
2022-08-04T14:27:48.321Z,38.30
2022-08-04T14:30:38.090Z,38.40
2022-08-04T14:34:00.442Z,38.50
2022-08-04T14:36:03.868Z,38.70
2022-08-04T14:38:47.882Z,38.60
2022-08-04T14:41:16.149Z,38.50
2022-08-04T14:43:58.078Z,38.60
2022-08-04T14:46:30.370Z,38.70
2022-08-04T14:49:12.583Z,38.80
2022-08-04T14:51:42.640Z,38.60
2022-08-04T14:54:17.321Z,38.70
2022-08-04T14:56:53.426Z,38.70
2022-08-04T14:59:20.368Z,38.80
2022-08-04T15:02:01.069Z,39.00
2022-08-04T15:04:31.453Z,39.20
2022-08-04T15:07:00.436Z,39.30
2022-08-04T15:09:28.161Z,39.20
2022-08-04T15:11:55.273Z,39.20
2022-08-04T15:14:36.823Z,39.30
2022-08-04T15:17:12.079Z,39.40
2022-08-04T15:19:55.579Z,39.40
2022-08-04T15:22:22.985Z,39.30
2022-08-04T15:24:55.172Z,39.30
2022-08-04T15:27:30.683Z,39.30
2022-08-04T15:30:02.258Z,39.20
2022-08-04T15:32:51.213Z,39.20
2022-08-04T15:35:28.842Z,39.20
2022-08-04T15:38:09.307Z,39.30
2022-08-04T15:41:07.945Z,39.20
2022-08-04T15:43:47.002Z,39.20
2022-08-04T15:46:52.559Z,39.20
2022-08-04T15:49:24.579Z,39.10
2022-08-04T15:52:01.604Z,39.00
2022-08-04T15:54:32.699Z,38.90
2022-08-04T15:57:01.258Z,38.90
2022-08-04T16:00:03.005Z,38.90
2022-08-04T16:02:29.883Z,39.10
2022-08-04T16:05:18.232Z,39.20
2022-08-04T16:08:11.506Z,39.10
2022-08-04T16:10:44.272Z,39.00
2022-08-04T16:13:15.851Z,39.40
2022-08-04T16:15:50.547Z,39.40
2022-08-04T16:18:30.583Z,39.50
2022-08-04T16:21:02.367Z,39.40
2022-08-04T16:23:53.031Z,39.30
2022-08-04T16:27:00.335Z,39.20
2022-08-04T16:29:28.033Z,39.10
2022-08-04T16:32:07.497Z,39.20
2022-08-04T16:34:49.647Z,39.00
2022-08-04T16:37:19.310Z,39.20
2022-08-04T16:39:49.987Z,39.30
2022-08-04T16:42:30.568Z,39.40
2022-08-04T16:45:11.578Z,39.60
2022-08-04T16:48:02.210Z,39.70
2022-08-04T16:50:29.343Z,39.90
2022-08-04T16:52:56.343Z,39.90
2022-08-04T16:55:27.573Z,39.90
2022-08-04T16:57:59.096Z,39.90
2022-08-04T17:00:34.398Z,40.00
2022-08-04T17:03:09.454Z,39.90
2022-08-04T17:05:39.933Z,39.90
2022-08-04T17:10:55.764Z,39.90
2022-08-04T17:14:00.924Z,40.00
2022-08-04T17:16:19.303Z,40.00
2022-08-04T17:18:49.948Z,40.20
2022-08-04T17:21:29.329Z,40.10
2022-08-04T17:24:13.077Z,40.20
2022-08-04T17:26:54.027Z,40.30
2022-08-04T17:29:44.338Z,40.20
2022-08-04T17:32:20.971Z,40.30
2022-08-04T17:34:54.280Z,40.40
2022-08-04T17:37:38.889Z,40.60
2022-08-04T17:40:10.676Z,40.50
2022-08-04T17:42:39.884Z,40.60
2022-08-04T17:51:17.409Z,41.00
2022-08-04T17:53:52.867Z,41.10
2022-08-04T17:56:52.148Z,41.20
2022-08-04T17:59:55.589Z,41.40
2022-08-04T18:02:10.572Z,41.60
2022-08-04T18:05:06.888Z,41.80
2022-08-04T18:08:38.622Z,42.20
2022-08-04T18:10:51.573Z,42.30
2022-08-04T18:13:21.927Z,42.60
2022-08-04T18:15:51.151Z,42.70
2022-08-04T18:18:23.373Z,43.00
2022-08-04T18:20:50.871Z,43.30
2022-08-04T18:23:17.662Z,43.40
2022-08-04T18:25:51.316Z,43.60
2022-08-04T18:28:27.026Z,43.80
2022-08-04T18:30:56.292Z,43.90
2022-08-04T18:33:37.634Z,44.00
2022-08-04T18:36:36.326Z,44.00
2022-08-04T18:38:58.096Z,44.00
2022-08-04T18:41:29.635Z,44.30
2022-08-04T18:44:16.259Z,44.40
2022-08-04T18:46:52.588Z,44.40
2022-08-04T18:51:01.774Z,44.20
2022-08-04T18:52:10.224Z,44.20
2022-08-04T18:54:41.904Z,44.40
2022-08-04T18:57:32.775Z,44.50
2022-08-04T18:59:56.487Z,44.50
2022-08-04T19:02:26.501Z,44.50
2022-08-04T19:04:53.393Z,44.60
2022-08-04T19:07:29.448Z,44.90
2022-08-04T19:09:58.034Z,45.20
2022-08-04T19:12:27.302Z,45.90
2022-08-04T19:14:59.085Z,45.50
2022-08-04T19:17:55.130Z,45.60
2022-08-04T19:20:26.721Z,45.70
2022-08-04T19:24:11.695Z,45.80
2022-08-04T19:26:01.711Z,46.00
2022-08-04T19:28:34.108Z,46.30
2022-08-04T19:31:09.547Z,46.50
2022-08-04T19:33:58.793Z,47.00
2022-08-04T19:36:31.108Z,47.00
2022-08-04T19:39:00.339Z,47.20
2022-08-04T19:41:27.850Z,47.40
2022-08-04T19:43:55.098Z,47.40
2022-08-04T19:46:24.793Z,47.40
2022-08-04T19:48:59.567Z,47.30
2022-08-04T19:51:28.512Z,47.30
2022-08-04T19:54:04.168Z,47.40
2022-08-04T19:56:41.873Z,47.40
2022-08-04T19:59:10.244Z,47.50
2022-08-04T20:01:44.749Z,47.70
2022-08-04T20:04:12.817Z,47.90
2022-08-04T20:06:39.808Z,48.20
2022-08-04T20:09:26.061Z,48.40
2022-08-04T20:11:57.354Z,48.40
2022-08-04T20:14:32.687Z,48.70
2022-08-04T20:17:10.253Z,49.70
2022-08-04T20:19:37.726Z,49.50
2022-08-04T20:22:04.459Z,49.80
2022-08-04T20:24:38.645Z,50.10
2022-08-04T20:27:15.129Z,50.60
2022-08-04T20:32:32.000Z,51.40
2022-08-04T20:34:59.082Z,51.70
2022-08-04T20:37:54.791Z,52.70
2022-08-04T20:40:14.828Z,52.40
2022-08-04T20:42:41.602Z,52.50
2022-08-04T20:45:16.239Z,52.60
2022-08-04T20:47:45.854Z,52.80
2022-08-04T20:50:29.855Z,52.90
2022-08-04T20:52:57.702Z,52.90
2022-08-04T20:55:25.359Z,53.10
2022-08-04T20:58:02.494Z,53.10
2022-08-04T21:00:31.146Z,53.30
2022-08-04T21:03:01.250Z,53.40
2022-08-04T21:05:29.302Z,53.60
2022-08-04T21:07:58.917Z,53.70
2022-08-04T21:10:26.423Z,53.80
2022-08-04T21:12:54.273Z,54.00
2022-08-04T21:15:25.705Z,54.20
2022-08-04T21:17:58.320Z,54.20
2022-08-04T21:20:30.178Z,54.40
2022-08-04T21:25:50.845Z,54.70
2022-08-04T21:28:20.593Z,54.90
2022-08-04T21:30:54.474Z,55.10
2022-08-04T21:33:24.608Z,55.20
2022-08-04T21:36:11.383Z,55.40
2022-08-04T21:38:39.342Z,55.50
2022-08-04T21:41:08.855Z,55.70
2022-08-04T21:43:43.010Z,55.90
2022-08-04T21:46:11.449Z,56.00
2022-08-04T21:48:38.892Z,56.10
2022-08-04T21:54:04.997Z,56.50
2022-08-04T21:56:32.790Z,56.50
2022-08-04T21:59:00.143Z,56.80
2022-08-04T22:04:14.139Z,57.10
2022-08-04T22:06:41.991Z,57.30
2022-08-04T22:09:14.965Z,57.50
2022-08-04T22:11:50.428Z,57.70
2022-08-04T22:14:28.960Z,58.50
2022-08-04T22:17:00.793Z,58.00
2022-08-04T22:19:40.882Z,58.10
2022-08-04T22:22:24.487Z,58.30
2022-08-04T22:24:53.617Z,58.40
2022-08-04T22:27:43.478Z,58.60
2022-08-04T22:30:17.144Z,58.70
2022-08-04T22:32:46.480Z,58.70
2022-08-04T22:35:30.887Z,58.80
2022-08-04T22:38:06.604Z,58.90
2022-08-04T22:40:38.197Z,58.90
2022-08-04T22:43:31.283Z,59.10
2022-08-04T22:45:51.669Z,59.30
2022-08-04T22:48:18.589Z,59.40
2022-08-04T22:50:45.354Z,59.60
2022-08-04T22:53:12.068Z,59.70
2022-08-04T22:56:06.493Z,59.80
2022-08-04T22:58:31.811Z,59.90
2022-08-04T23:00:58.696Z,59.90
2022-08-04T23:03:36.886Z,60.00
2022-08-04T23:06:11.057Z,60.10
2022-08-04T23:08:43.236Z,60.30
2022-08-04T23:11:15.250Z,60.30
2022-08-04T23:13:42.769Z,60.30
2022-08-04T23:16:10.608Z,60.50
2022-08-04T23:18:42.115Z,60.70
2022-08-04T23:21:11.855Z,61.00
2022-08-04T23:23:45.664Z,61.10
2022-08-04T23:26:27.403Z,61.30
2022-08-04T23:28:55.893Z,61.40
2022-08-04T23:31:22.734Z,61.50
2022-08-04T23:33:51.421Z,61.60
2022-08-04T23:36:29.728Z,61.70
2022-08-04T23:39:00.408Z,61.80
2022-08-04T23:41:54.759Z,61.90
2022-08-04T23:44:17.469Z,62.00
2022-08-04T23:46:51.051Z,62.20
2022-08-04T23:49:20.089Z,62.40
2022-08-04T23:51:49.635Z,62.60
2022-08-04T23:54:16.571Z,62.80
2022-08-04T23:56:52.703Z,63.00
2022-08-04T23:59:49.083Z,63.10
